sensor_id;sensor_type;location;lat;lon;timestamp;temperature;humidity
4090;DHT22;2059;48.538;12.146;2023-04-03T00:02:31;6.00;97.10
4090;DHT22;2059;48.538;12.146;2023-04-03T00:07:33;6.00;97.40
4090;DHT22;2059;48.538;12.146;2023-04-03T00:12:35;6.20;97.00
4090;DHT22;2059;48.538;12.146;2023-04-03T00:17:38;6.20;97.30
4090;DHT22;2059;48.538;12.146;2023-04-03T00:22:40;6.20;97.10
4090;DHT22;2059;48.538;12.146;2023-04-03T00:27:42;6.20;97.00
4090;DHT22;2059;48.538;12.146;2023-04-03T00:38:42;6.00;97.40
4090;DHT22;2059;48.538;12.146;2023-04-03T00:43:44;6.00;97.10
4090;DHT22;2059;48.538;12.146;2023-04-03T00:48:48;6.20;97.10
4090;DHT22;2059;48.538;12.146;2023-04-03T00:53:54;6.00;97.10
4090;DHT22;2059;48.538;12.146;2023-04-03T00:58:58;6.10;97.30
4090;DHT22;2059;48.538;12.146;2023-04-03T01:04:01;5.70;97.80
4090;DHT22;2059;48.538;12.146;2023-04-03T01:09:05;5.90;97.60
4090;DHT22;2059;48.538;12.146;2023-04-03T01:14:07;6.00;97.70
4090;DHT22;2059;48.538;12.146;2023-04-03T01:19:14;5.90;97.60
4090;DHT22;2059;48.538;12.146;2023-04-03T01:24:32;5.70;97.90
4090;DHT22;2059;48.538;12.146;2023-04-03T01:29:34;5.80;98.30
4090;DHT22;2059;48.538;12.146;2023-04-03T01:34:38;5.80;98.00
4090;DHT22;2059;48.538;12.146;2023-04-03T01:39:40;5.90;97.80
4090;DHT22;2059;48.538;12.146;2023-04-03T01:44:42;6.10;97.40
4090;DHT22;2059;48.538;12.146;2023-04-03T01:49:45;5.90;97.50
4090;DHT22;2059;48.538;12.146;2023-04-03T01:54:47;5.60;98.20
4090;DHT22;2059;48.538;12.146;2023-04-03T01:59:48;5.70;98.20
4090;DHT22;2059;48.538;12.146;2023-04-03T02:04:53;5.80;98.00
4090;DHT22;2059;48.538;12.146;2023-04-03T02:09:55;5.90;98.20
4090;DHT22;2059;48.538;12.146;2023-04-03T02:14:57;6.10;97.70
4090;DHT22;2059;48.538;12.146;2023-04-03T02:20:00;5.80;98.00
4090;DHT22;2059;48.538;12.146;2023-04-03T02:25:01;5.90;98.20
4090;DHT22;2059;48.538;12.146;2023-04-03T02:30:04;5.90;97.90
4090;DHT22;2059;48.538;12.146;2023-04-03T02:35:09;6.10;97.40
4090;DHT22;2059;48.538;12.146;2023-04-03T02:40:11;6.10;97.40
4090;DHT22;2059;48.538;12.146;2023-04-03T02:45:13;6.00;97.20
4090;DHT22;2059;48.538;12.146;2023-04-03T02:50:16;5.80;97.60
4090;DHT22;2059;48.538;12.146;2023-04-03T02:55:18;5.60;97.50
4090;DHT22;2059;48.538;12.146;2023-04-03T03:00:20;5.50;97.70
4090;DHT22;2059;48.538;12.146;2023-04-03T03:05:23;5.30;98.00
4090;DHT22;2059;48.538;12.146;2023-04-03T03:10:25;5.40;98.10
4090;DHT22;2059;48.538;12.146;2023-04-03T03:15:27;5.40;98.10
4090;DHT22;2059;48.538;12.146;2023-04-03T03:20:30;5.50;98.20
4090;DHT22;2059;48.538;12.146;2023-04-03T03:25:32;5.60;98.20
4090;DHT22;2059;48.538;12.146;2023-04-03T03:30:33;5.50;98.30
4090;DHT22;2059;48.538;12.146;2023-04-03T03:35:36;5.30;97.90
4090;DHT22;2059;48.538;12.146;2023-04-03T03:40:38;5.20;98.30
4090;DHT22;2059;48.538;12.146;2023-04-03T03:45:40;5.40;98.40
4090;DHT22;2059;48.538;12.146;2023-04-03T03:50:43;5.40;98.40
4090;DHT22;2059;48.538;12.146;2023-04-03T03:55:45;5.60;98.30
4090;DHT22;2059;48.538;12.146;2023-04-03T04:00:47;5.70;97.90
4090;DHT22;2059;48.538;12.146;2023-04-03T04:05:50;5.70;97.70
4090;DHT22;2059;48.538;12.146;2023-04-03T04:10:53;5.40;98.20
4090;DHT22;2059;48.538;12.146;2023-04-03T04:15:54;5.60;98.00
4090;DHT22;2059;48.538;12.146;2023-04-03T04:20:58;5.70;97.80
4090;DHT22;2059;48.538;12.146;2023-04-03T04:25:59;5.50;97.60
4090;DHT22;2059;48.538;12.146;2023-04-03T04:31:01;5.50;97.60
4090;DHT22;2059;48.538;12.146;2023-04-03T04:36:05;5.30;98.20
4090;DHT22;2059;48.538;12.146;2023-04-03T04:41:07;5.40;98.10
4090;DHT22;2059;48.538;12.146;2023-04-03T04:46:09;5.50;98.10
4090;DHT22;2059;48.538;12.146;2023-04-03T04:51:14;5.30;98.10
4090;DHT22;2059;48.538;12.146;2023-04-03T04:56:16;5.50;98.10
4090;DHT22;2059;48.538;12.146;2023-04-03T05:01:18;5.60;97.90
4090;DHT22;2059;48.538;12.146;2023-04-03T05:06:21;5.30;98.10
4090;DHT22;2059;48.538;12.146;2023-04-03T05:11:23;5.10;98.90
4090;DHT22;2059;48.538;12.146;2023-04-03T05:16:26;5.00;98.80
4090;DHT22;2059;48.538;12.146;2023-04-03T05:21:30;5.10;99.00
4090;DHT22;2059;48.538;12.146;2023-04-03T05:26:32;5.10;99.00
4090;DHT22;2059;48.538;12.146;2023-04-03T05:31:34;5.20;99.00
4090;DHT22;2059;48.538;12.146;2023-04-03T05:36:38;5.20;98.90
4090;DHT22;2059;48.538;12.146;2023-04-03T05:41:39;5.20;98.90
4090;DHT22;2059;48.538;12.146;2023-04-03T05:46:41;5.30;99.00
4090;DHT22;2059;48.538;12.146;2023-04-03T05:51:44;5.40;98.70
4090;DHT22;2059;48.538;12.146;2023-04-03T05:56:46;5.50;98.50
4090;DHT22;2059;48.538;12.146;2023-04-03T06:01:48;5.50;98.90
4090;DHT22;2059;48.538;12.146;2023-04-03T06:06:53;5.50;98.70
4090;DHT22;2059;48.538;12.146;2023-04-03T06:11:55;5.40;98.70
4090;DHT22;2059;48.538;12.146;2023-04-03T06:16:59;5.40;98.80
4090;DHT22;2059;48.538;12.146;2023-04-03T06:22:05;5.60;98.70
4090;DHT22;2059;48.538;12.146;2023-04-03T06:27:08;5.60;98.70
4090;DHT22;2059;48.538;12.146;2023-04-03T06:32:11;5.70;98.50
4090;DHT22;2059;48.538;12.146;2023-04-03T06:37:17;5.80;98.40
4090;DHT22;2059;48.538;12.146;2023-04-03T06:42:19;5.70;98.20
4090;DHT22;2059;48.538;12.146;2023-04-03T06:47:21;5.90;98.10
4090;DHT22;2059;48.538;12.146;2023-04-03T06:52:24;5.90;98.10
4090;DHT22;2059;48.538;12.146;2023-04-03T06:57:26;6.10;97.80
4090;DHT22;2059;48.538;12.146;2023-04-03T07:02:28;6.10;97.50
4090;DHT22;2059;48.538;12.146;2023-04-03T07:07:31;6.30;97.90
4090;DHT22;2059;48.538;12.146;2023-04-03T07:12:34;6.20;97.70
4090;DHT22;2059;48.538;12.146;2023-04-03T07:17:36;6.50;97.30
4090;DHT22;2059;48.538;12.146;2023-04-03T07:22:39;6.30;97.00
4090;DHT22;2059;48.538;12.146;2023-04-03T07:27:41;6.20;97.70
4090;DHT22;2059;48.538;12.146;2023-04-03T07:32:42;6.50;97.20
4090;DHT22;2059;48.538;12.146;2023-04-03T07:37:46;6.40;96.80
4090;DHT22;2059;48.538;12.146;2023-04-03T07:42:48;6.60;96.50
4090;DHT22;2059;48.538;12.146;2023-04-03T07:47:50;7.00;96.20
4090;DHT22;2059;48.538;12.146;2023-04-03T07:52:53;7.00;96.20
4090;DHT22;2059;48.538;12.146;2023-04-03T07:57:58;7.40;95.70
4090;DHT22;2059;48.538;12.146;2023-04-03T08:02:59;7.50;94.60
4090;DHT22;2059;48.538;12.146;2023-04-03T08:08:03;7.10;94.40
4090;DHT22;2059;48.538;12.146;2023-04-03T08:13:05;7.20;94.50
4090;DHT22;2059;48.538;12.146;2023-04-03T08:18:07;7.00;94.50
4090;DHT22;2059;48.538;12.146;2023-04-03T08:23:11;7.00;93.60
4090;DHT22;2059;48.538;12.146;2023-04-03T08:28:13;7.30;92.90
4090;DHT22;2059;48.538;12.146;2023-04-03T08:33:14;7.10;92.20
4090;DHT22;2059;48.538;12.146;2023-04-03T08:38:18;6.90;92.50
4090;DHT22;2059;48.538;12.146;2023-04-03T08:43:30;7.00;91.30
4090;DHT22;2059;48.538;12.146;2023-04-03T08:48:39;6.90;90.50
4090;DHT22;2059;48.538;12.146;2023-04-03T08:53:49;7.30;90.30
4090;DHT22;2059;48.538;12.146;2023-04-03T08:58:58;7.50;89.20
4090;DHT22;2059;48.538;12.146;2023-04-03T09:04:01;7.40;88.50
4090;DHT22;2059;48.538;12.146;2023-04-03T09:09:12;7.50;88.00
4090;DHT22;2059;48.538;12.146;2023-04-03T09:14:21;7.90;87.10
4090;DHT22;2059;48.538;12.146;2023-04-03T09:19:35;7.70;85.20
4090;DHT22;2059;48.538;12.146;2023-04-03T09:24:41;7.70;85.20
4090;DHT22;2059;48.538;12.146;2023-04-03T09:29:44;7.50;83.00
4090;DHT22;2059;48.538;12.146;2023-04-03T09:34:47;7.60;83.70
4090;DHT22;2059;48.538;12.146;2023-04-03T09:39:53;7.70;81.70
4090;DHT22;2059;48.538;12.146;2023-04-03T09:44:58;7.40;81.30
4090;DHT22;2059;48.538;12.146;2023-04-03T09:50:19;7.50;80.10
4090;DHT22;2059;48.538;12.146;2023-04-03T09:55:24;7.90;79.30
4090;DHT22;2059;48.538;12.146;2023-04-03T10:00:31;7.50;78.10
4090;DHT22;2059;48.538;12.146;2023-04-03T10:05:36;7.90;80.30
4090;DHT22;2059;48.538;12.146;2023-04-03T10:10:40;7.90;78.30
4090;DHT22;2059;48.538;12.146;2023-04-03T10:15:43;7.60;78.10
4090;DHT22;2059;48.538;12.146;2023-04-03T10:20:48;7.90;77.50
4090;DHT22;2059;48.538;12.146;2023-04-03T10:26:02;7.80;77.00
4090;DHT22;2059;48.538;12.146;2023-04-03T10:31:13;7.40;77.70
4090;DHT22;2059;48.538;12.146;2023-04-03T10:36:25;8.00;75.80
4090;DHT22;2059;48.538;12.146;2023-04-03T10:41:43;8.10;74.80
4090;DHT22;2059;48.538;12.146;2023-04-03T10:46:52;8.60;75.40
4090;DHT22;2059;48.538;12.146;2023-04-03T10:51:59;8.60;74.60
4090;DHT22;2059;48.538;12.146;2023-04-03T10:57:09;9.00;74.30
4090;DHT22;2059;48.538;12.146;2023-04-03T11:02:16;8.60;75.40
4090;DHT22;2059;48.538;12.146;2023-04-03T11:07:22;8.60;76.60
4090;DHT22;2059;48.538;12.146;2023-04-03T11:12:32;8.60;74.00
4090;DHT22;2059;48.538;12.146;2023-04-03T11:17:39;9.40;74.90
4090;DHT22;2059;48.538;12.146;2023-04-03T11:22:48;10.10;68.70
4090;DHT22;2059;48.538;12.146;2023-04-03T11:27:57;10.30;67.60
4090;DHT22;2059;48.538;12.146;2023-04-03T11:33:13;10.40;66.00
4090;DHT22;2059;48.538;12.146;2023-04-03T11:38:21;9.50;67.70
4090;DHT22;2059;48.538;12.146;2023-04-03T11:43:26;8.80;70.00
4090;DHT22;2059;48.538;12.146;2023-04-03T11:48:48;8.70;68.50
4090;DHT22;2059;48.538;12.146;2023-04-03T11:53:50;9.50;70.00
4090;DHT22;2059;48.538;12.146;2023-04-03T11:59:26;10.70;65.30
4090;DHT22;2059;48.538;12.146;2023-04-03T12:04:38;11.00;64.30
4090;DHT22;2059;48.538;12.146;2023-04-03T12:10:01;10.90;63.00
4090;DHT22;2059;48.538;12.146;2023-04-03T12:15:24;10.60;60.20
4090;DHT22;2059;48.538;12.146;2023-04-03T12:20:58;10.50;59.60
4090;DHT22;2059;48.538;12.146;2023-04-03T12:26:18;9.70;62.50
4090;DHT22;2059;48.538;12.146;2023-04-03T12:31:25;11.40;58.70
4090;DHT22;2059;48.538;12.146;2023-04-03T12:36:39;11.70;57.30
4090;DHT22;2059;48.538;12.146;2023-04-03T12:41:48;10.30;56.80
4090;DHT22;2059;48.538;12.146;2023-04-03T12:46:54;9.50;59.70
4090;DHT22;2059;48.538;12.146;2023-04-03T12:51:56;9.50;60.90
4090;DHT22;2059;48.538;12.146;2023-04-03T12:57:10;9.90;60.20
4090;DHT22;2059;48.538;12.146;2023-04-03T13:02:21;9.70;59.00
4090;DHT22;2059;48.538;12.146;2023-04-03T13:07:26;9.70;59.40
4090;DHT22;2059;48.538;12.146;2023-04-03T13:12:31;10.00;60.20
4090;DHT22;2059;48.538;12.146;2023-04-03T13:17:38;9.40;58.10
4090;DHT22;2059;48.538;12.146;2023-04-03T13:22:47;8.60;59.20
4090;DHT22;2059;48.538;12.146;2023-04-03T13:27:49;9.00;60.20
4090;DHT22;2059;48.538;12.146;2023-04-03T13:32:53;9.90;59.20
4090;DHT22;2059;48.538;12.146;2023-04-03T13:37:57;9.20;58.60
4090;DHT22;2059;48.538;12.146;2023-04-03T13:43:02;9.30;59.40
4090;DHT22;2059;48.538;12.146;2023-04-03T13:48:15;8.90;58.40
4090;DHT22;2059;48.538;12.146;2023-04-03T13:53:18;9.00;58.20
4090;DHT22;2059;48.538;12.146;2023-04-03T13:58:22;9.60;57.70
4090;DHT22;2059;48.538;12.146;2023-04-03T14:03:29;9.70;59.50
4090;DHT22;2059;48.538;12.146;2023-04-03T14:08:32;9.10;58.50
4090;DHT22;2059;48.538;12.146;2023-04-03T14:13:34;9.10;57.90
4090;DHT22;2059;48.538;12.146;2023-04-03T14:18:37;9.50;58.40
4090;DHT22;2059;48.538;12.146;2023-04-03T14:23:39;9.80;58.30
4090;DHT22;2059;48.538;12.146;2023-04-03T14:28:40;10.70;56.90
4090;DHT22;2059;48.538;12.146;2023-04-03T14:33:44;10.90;56.30
4090;DHT22;2059;48.538;12.146;2023-04-03T14:38:46;10.20;55.80
4090;DHT22;2059;48.538;12.146;2023-04-03T14:43:49;9.80;58.20
4090;DHT22;2059;48.538;12.146;2023-04-03T14:48:52;9.90;57.90
4090;DHT22;2059;48.538;12.146;2023-04-03T14:53:54;9.70;58.90
4090;DHT22;2059;48.538;12.146;2023-04-03T14:58:58;9.70;58.90
4090;DHT22;2059;48.538;12.146;2023-04-03T15:04:01;9.40;60.40
4090;DHT22;2059;48.538;12.146;2023-04-03T15:09:03;9.20;60.30
4090;DHT22;2059;48.538;12.146;2023-04-03T15:14:07;9.10;61.30
4090;DHT22;2059;48.538;12.146;2023-04-03T15:19:11;9.00;60.70
4090;DHT22;2059;48.538;12.146;2023-04-03T15:24:13;9.10;60.60
4090;DHT22;2059;48.538;12.146;2023-04-03T15:29:15;8.70;60.30
4090;DHT22;2059;48.538;12.146;2023-04-03T15:34:19;8.30;61.50
4090;DHT22;2059;48.538;12.146;2023-04-03T15:39:21;8.20;63.10
4090;DHT22;2059;48.538;12.146;2023-04-03T15:44:24;8.50;62.30
4090;DHT22;2059;48.538;12.146;2023-04-03T15:49:27;8.70;60.20
4090;DHT22;2059;48.538;12.146;2023-04-03T15:54:29;8.60;60.80
4090;DHT22;2059;48.538;12.146;2023-04-03T15:59:31;10.30;57.50
4090;DHT22;2059;48.538;12.146;2023-04-03T16:04:34;9.90;57.90
4090;DHT22;2059;48.538;12.146;2023-04-03T16:09:36;8.50;60.30
4090;DHT22;2059;48.538;12.146;2023-04-03T16:14:38;8.30;62.60
4090;DHT22;2059;48.538;12.146;2023-04-03T16:19:42;8.10;60.80
4090;DHT22;2059;48.538;12.146;2023-04-03T16:24:43;7.70;62.40
4090;DHT22;2059;48.538;12.146;2023-04-03T16:29:45;7.70;64.20
4090;DHT22;2059;48.538;12.146;2023-04-03T16:34:48;7.70;63.40
4090;DHT22;2059;48.538;12.146;2023-04-03T16:39:50;7.60;63.90
4090;DHT22;2059;48.538;12.146;2023-04-03T16:44:52;7.60;62.50
4090;DHT22;2059;48.538;12.146;2023-04-03T16:49:55;7.20;62.70
4090;DHT22;2059;48.538;12.146;2023-04-03T16:54:57;6.90;63.80
4090;DHT22;2059;48.538;12.146;2023-04-03T16:59:59;6.70;64.60
4090;DHT22;2059;48.538;12.146;2023-04-03T17:05:03;6.80;65.40
4090;DHT22;2059;48.538;12.146;2023-04-03T17:10:06;6.80;65.40
4090;DHT22;2059;48.538;12.146;2023-04-03T17:15:08;6.50;64.50
4090;DHT22;2059;48.538;12.146;2023-04-03T17:20:12;6.30;65.00
4090;DHT22;2059;48.538;12.146;2023-04-03T17:25:15;6.30;65.40
4090;DHT22;2059;48.538;12.146;2023-04-03T17:30:17;6.30;66.40
4090;DHT22;2059;48.538;12.146;2023-04-03T17:35:20;6.30;66.40
4090;DHT22;2059;48.538;12.146;2023-04-03T17:40:22;5.90;67.70
4090;DHT22;2059;48.538;12.146;2023-04-03T17:45:24;5.70;66.50
4090;DHT22;2059;48.538;12.146;2023-04-03T17:50:28;5.50;66.90
4090;DHT22;2059;48.538;12.146;2023-04-03T17:55:30;5.40;68.10
4090;DHT22;2059;48.538;12.146;2023-04-03T18:00:32;5.40;69.10
4090;DHT22;2059;48.538;12.146;2023-04-03T18:05:36;5.30;68.70
4090;DHT22;2059;48.538;12.146;2023-04-03T18:10:38;5.20;69.30
4090;DHT22;2059;48.538;12.146;2023-04-03T18:15:40;5.20;69.50
4090;DHT22;2059;48.538;12.146;2023-04-03T18:20:46;5.30;70.20
4090;DHT22;2059;48.538;12.146;2023-04-03T18:25:48;5.10;71.40
4090;DHT22;2059;48.538;12.146;2023-04-03T18:30:50;5.30;71.70
4090;DHT22;2059;48.538;12.146;2023-04-03T18:35:53;5.20;71.20
4090;DHT22;2059;48.538;12.146;2023-04-03T18:40:55;5.10;71.40
4090;DHT22;2059;48.538;12.146;2023-04-03T18:45:57;5.00;70.90
4090;DHT22;2059;48.538;12.146;2023-04-03T18:51:00;4.90;71.50
4090;DHT22;2059;48.538;12.146;2023-04-03T18:56:02;4.90;71.60
4090;DHT22;2059;48.538;12.146;2023-04-03T19:01:04;4.90;71.40
4090;DHT22;2059;48.538;12.146;2023-04-03T19:06:08;4.60;71.50
4090;DHT22;2059;48.538;12.146;2023-04-03T19:11:10;4.60;72.50
4090;DHT22;2059;48.538;12.146;2023-04-03T19:16:12;4.50;72.50
4090;DHT22;2059;48.538;12.146;2023-04-03T19:21:15;4.50;72.60
4090;DHT22;2059;48.538;12.146;2023-04-03T19:26:17;4.50;73.10
4090;DHT22;2059;48.538;12.146;2023-04-03T19:31:23;4.50;73.60
4090;DHT22;2059;48.538;12.146;2023-04-03T19:36:27;4.30;74.40
4090;DHT22;2059;48.538;12.146;2023-04-03T19:41:30;4.30;73.90
4090;DHT22;2059;48.538;12.146;2023-04-03T19:46:35;4.40;73.70
4090;DHT22;2059;48.538;12.146;2023-04-03T19:51:38;4.30;74.30
4090;DHT22;2059;48.538;12.146;2023-04-03T19:56:40;4.20;74.60
4090;DHT22;2059;48.538;12.146;2023-04-03T20:01:42;4.20;74.50
4090;DHT22;2059;48.538;12.146;2023-04-03T20:06:47;4.10;75.30
4090;DHT22;2059;48.538;12.146;2023-04-03T20:11:49;4.10;75.90
4090;DHT22;2059;48.538;12.146;2023-04-03T20:16:51;4.20;75.80
4090;DHT22;2059;48.538;12.146;2023-04-03T20:21:54;4.10;76.50
4090;DHT22;2059;48.538;12.146;2023-04-03T20:26:57;3.80;77.20
4090;DHT22;2059;48.538;12.146;2023-04-03T20:32:02;3.80;78.10
4090;DHT22;2059;48.538;12.146;2023-04-03T20:37:08;3.80;78.70
4090;DHT22;2059;48.538;12.146;2023-04-03T20:42:11;3.90;78.60
4090;DHT22;2059;48.538;12.146;2023-04-03T20:47:12;4.00;78.30
4090;DHT22;2059;48.538;12.146;2023-04-03T20:52:16;3.90;79.30
4090;DHT22;2059;48.538;12.146;2023-04-03T20:57:18;4.00;79.00
4090;DHT22;2059;48.538;12.146;2023-04-03T21:02:20;4.00;78.70
4090;DHT22;2059;48.538;12.146;2023-04-03T21:24:23;3.80;79.50
4090;DHT22;2059;48.538;12.146;2023-04-03T21:29:24;3.70;79.90
4090;DHT22;2059;48.538;12.146;2023-04-03T21:34:27;3.80;79.80
4090;DHT22;2059;48.538;12.146;2023-04-03T21:39:30;3.90;79.60
4090;DHT22;2059;48.538;12.146;2023-04-03T21:44:32;3.70;80.60
4090;DHT22;2059;48.538;12.146;2023-04-03T21:49:34;3.60;81.30
4090;DHT22;2059;48.538;12.146;2023-04-03T21:54:37;3.80;80.20
4090;DHT22;2059;48.538;12.146;2023-04-03T21:59:38;3.60;80.50
4090;DHT22;2059;48.538;12.146;2023-04-03T22:04:41;3.40;80.70
4090;DHT22;2059;48.538;12.146;2023-04-03T22:09:44;3.20;81.30
4090;DHT22;2059;48.538;12.146;2023-04-03T22:14:46;3.40;80.60
4090;DHT22;2059;48.538;12.146;2023-04-03T22:19:48;3.20;81.20
4090;DHT22;2059;48.538;12.146;2023-04-03T22:24:51;3.10;81.20
4090;DHT22;2059;48.538;12.146;2023-04-03T22:29:55;3.00;81.90
4090;DHT22;2059;48.538;12.146;2023-04-03T22:34:56;3.00;82.20
4090;DHT22;2059;48.538;12.146;2023-04-03T22:40:00;2.90;82.40
4090;DHT22;2059;48.538;12.146;2023-04-03T22:45:02;2.80;82.80
4090;DHT22;2059;48.538;12.146;2023-04-03T22:50:04;2.80;82.20
4090;DHT22;2059;48.538;12.146;2023-04-03T22:55:08;2.70;82.30
4090;DHT22;2059;48.538;12.146;2023-04-03T23:00:13;2.80;82.60
4090;DHT22;2059;48.538;12.146;2023-04-03T23:05:15;2.60;82.50
4090;DHT22;2059;48.538;12.146;2023-04-03T23:10:18;2.60;82.80
4090;DHT22;2059;48.538;12.146;2023-04-03T23:15:20;2.50;83.30
4090;DHT22;2059;48.538;12.146;2023-04-03T23:20:22;2.40;83.90
4090;DHT22;2059;48.538;12.146;2023-04-03T23:30:28;2.30;84.90
4090;DHT22;2059;48.538;12.146;2023-04-03T23:35:30;2.30;85.60
4090;DHT22;2059;48.538;12.146;2023-04-03T23:40:31;2.40;84.50
4090;DHT22;2059;48.538;12.146;2023-04-03T23:45:35;2.20;85.30
4090;DHT22;2059;48.538;12.146;2023-04-03T23:50:36;2.30;84.50
4090;DHT22;2059;48.538;12.146;2023-04-03T23:55:38;2.30;84.20
